Time;durP1;ratioP1;P1;durP2;ratioP2;P2;SDS_P1;SDS_P2;PMS_P1;PMS_P2;Temp;Humidity;BMP_temperature;BMP_pressure;BME280_temperature;BME280_humidity;BME280_pressure;Samples;Min_cycle;Max_cycle;Signal;HPM_P1;HPM_P2
2022/05/03 00:00:03;;;;;;;;;;;13.00;99.90;;;;;;5020174;28;19926;-67
2022/05/03 00:02:35;;;;;;;;;;;12.90;99.90;;;;;;5014540;28;19940;-67
2022/05/03 00:05:03;;;;;;;;;;;12.90;99.90;;;;;;5027989;28;19928;-67
2022/05/03 00:07:34;;;;;;;;;;;12.80;99.90;;;;;;5026825;28;20011;-68
2022/05/03 00:10:03;;;;;;;;;;;12.70;99.90;;;;;;5019429;28;19964;-67
2022/05/03 00:12:32;;;;;;;;;;;12.70;99.90;;;;;;5021464;28;19972;-68
2022/05/03 00:15:01;;;;;;;;;;;12.60;99.90;;;;;;5022265;28;20233;-69
2022/05/03 00:17:27;;;;;;;;;;;12.60;99.90;;;;;;5026506;28;19933;-68
2022/05/03 00:19:54;;;;;;;;;;;12.60;99.90;;;;;;5022474;28;20006;-69
2022/05/03 00:22:20;;;;;;;;;;;12.60;99.90;;;;;;5026610;28;19995;-66
2022/05/03 00:24:47;;;;;;;;;;;12.50;99.90;;;;;;5025472;28;19987;-66
2022/05/03 00:27:14;;;;;;;;;;;12.50;99.90;;;;;;5024956;28;19929;-67
2022/05/03 00:29:41;;;;;;;;;;;12.40;99.90;;;;;;5017217;28;19937;-68
2022/05/03 00:32:09;;;;;;;;;;;12.40;99.90;;;;;;5015973;28;20016;-67
2022/05/03 00:34:36;;;;;;;;;;;12.40;99.90;;;;;;5025209;28;19979;-67
2022/05/03 00:37:02;;;;;;;;;;;12.30;99.90;;;;;;5023781;28;20338;-67
2022/05/03 00:39:29;;;;;;;;;;;12.30;99.90;;;;;;5017474;28;20374;-69
2022/05/03 00:41:56;;;;;;;;;;;12.30;99.90;;;;;;5021531;28;20001;-66
2022/05/03 00:47:16;;;;;;;;;;;12.30;99.90;;;;;;5024845;28;19927;-68
2022/05/03 00:49:50;;;;;;;;;;;12.30;99.90;;;;;;5019318;28;19932;-69
2022/05/03 00:52:21;;;;;;;;;;;12.30;99.90;;;;;;5025868;28;20031;-68
2022/05/03 00:55:01;;;;;;;;;;;12.20;99.90;;;;;;5021431;28;19937;-68
2022/05/03 00:57:36;;;;;;;;;;;12.30;99.90;;;;;;5025349;28;19985;-68
2022/05/03 01:00:06;;;;;;;;;;;12.30;99.90;;;;;;5024491;28;19981;-68
2022/05/03 01:02:40;;;;;;;;;;;12.30;99.90;;;;;;5020820;28;20039;-68
2022/05/03 01:05:09;;;;;;;;;;;12.30;99.90;;;;;;5025855;28;20390;-68
2022/05/03 01:07:36;;;;;;;;;;;12.30;99.90;;;;;;5026051;28;19937;-68
2022/05/03 01:10:04;;;;;;;;;;;12.40;99.90;;;;;;5025730;28;19946;-69
2022/05/03 01:12:37;;;;;;;;;;;12.40;99.90;;;;;;5019185;28;20017;-68
2022/05/03 01:15:08;;;;;;;;;;;12.40;99.90;;;;;;5025520;28;19925;-68
2022/05/03 01:17:41;;;;;;;;;;;12.50;99.90;;;;;;5027160;28;19979;-68
2022/05/03 01:20:09;;;;;;;;;;;12.60;99.90;;;;;;5024756;28;19929;-68
2022/05/03 01:22:53;;;;;;;;;;;12.60;99.90;;;;;;5027506;28;19932;-68
2022/05/03 01:25:29;;;;;;;;;;;12.60;99.90;;;;;;5019069;28;19937;-68
2022/05/03 01:28:04;;;;;;;;;;;12.70;99.90;;;;;;5023421;28;20397;-68
2022/05/03 01:30:32;;;;;;;;;;;12.70;99.90;;;;;;5019903;28;19980;-68
2022/05/03 01:33:06;;;;;;;;;;;12.60;99.90;;;;;;5023610;28;20453;-68
2022/05/03 01:35:36;;;;;;;;;;;12.70;99.90;;;;;;5016737;28;20006;-67
2022/05/03 01:38:19;;;;;;;;;;;12.60;99.90;;;;;;5024459;28;20524;-68
2022/05/03 01:40:50;;;;;;;;;;;12.60;99.90;;;;;;5019222;28;20337;-68
2022/05/03 01:43:23;;;;;;;;;;;12.50;99.90;;;;;;5023450;28;20374;-66
2022/05/03 01:45:59;;;;;;;;;;;12.50;99.90;;;;;;5022554;28;19929;-68
2022/05/03 01:50:18;;;;;;;;;;;12.40;99.90;;;;;;5025135;28;19945;-68
2022/05/03 01:51:19;;;;;;;;;;;12.40;99.90;;;;;;5019102;28;19925;-66
2022/05/03 01:53:47;;;;;;;;;;;12.30;99.90;;;;;;5016606;28;19944;-68
2022/05/03 01:56:19;;;;;;;;;;;12.20;99.90;;;;;;5017240;28;19949;-68
2022/05/03 01:58:51;;;;;;;;;;;12.20;99.90;;;;;;5022187;28;19937;-68
2022/05/03 02:01:23;;;;;;;;;;;12.00;99.90;;;;;;5021621;28;19995;-68
2022/05/03 02:03:50;;;;;;;;;;;12.00;99.90;;;;;;5021801;28;19994;-68
2022/05/03 02:06:22;;;;;;;;;;;12.00;99.90;;;;;;5019567;28;19933;-67
2022/05/03 02:08:53;;;;;;;;;;;11.90;99.90;;;;;;5016526;28;19929;-67
2022/05/03 02:11:34;;;;;;;;;;;11.90;99.90;;;;;;5023637;28;20466;-68
2022/05/03 02:16:55;;;;;;;;;;;11.90;99.90;;;;;;5023440;28;19959;-69
2022/05/03 02:19:29;;;;;;;;;;;11.90;99.90;;;;;;5017047;28;20020;-65
2022/05/03 02:22:04;;;;;;;;;;;11.90;99.90;;;;;;5024971;28;19925;-64
2022/05/03 02:24:36;;;;;;;;;;;11.80;99.90;;;;;;5024923;28;19929;-66
2022/05/03 02:27:08;;;;;;;;;;;11.80;99.90;;;;;;5021730;28;19937;-68
2022/05/03 02:29:40;;;;;;;;;;;11.70;99.90;;;;;;5019848;28;19925;-66
2022/05/03 02:32:11;;;;;;;;;;;11.70;99.90;;;;;;5021700;28;20006;-67
2022/05/03 02:34:43;;;;;;;;;;;11.70;99.90;;;;;;5016337;28;19998;-67
2022/05/03 02:37:12;;;;;;;;;;;11.70;99.90;;;;;;5025210;28;19925;-65
2022/05/03 02:39:42;;;;;;;;;;;11.60;99.90;;;;;;5020430;28;20032;-67
2022/05/03 02:42:09;;;;;;;;;;;11.60;99.90;;;;;;5015289;28;19926;-67
2022/05/03 02:44:36;;;;;;;;;;;11.50;99.90;;;;;;5014774;28;19929;-67
2022/05/03 02:47:04;;;;;;;;;;;11.50;99.90;;;;;;5018713;28;20393;-66
2022/05/03 02:49:51;;;;;;;;;;;11.40;99.90;;;;;;5017022;28;19996;-66
2022/05/03 02:52:24;;;;;;;;;;;11.40;99.90;;;;;;5011462;28;19990;-65
2022/05/03 02:54:56;;;;;;;;;;;11.30;99.90;;;;;;5019929;28;20022;-66
2022/05/03 02:57:27;;;;;;;;;;;11.30;99.90;;;;;;5018555;28;20919;-65
2022/05/03 03:02:44;;;;;;;;;;;11.20;99.90;;;;;;5015871;28;19935;-67
2022/05/03 03:05:17;;;;;;;;;;;11.10;99.90;;;;;;5022689;28;19929;-66
2022/05/03 03:07:46;;;;;;;;;;;11.10;99.90;;;;;;5018045;28;20031;-66
2022/05/03 03:10:14;;;;;;;;;;;11.10;99.90;;;;;;5021787;28;20003;-67
2022/05/03 03:12:44;;;;;;;;;;;11.00;99.90;;;;;;5018456;28;20488;-67
2022/05/03 03:15:15;;;;;;;;;;;11.00;99.90;;;;;;5022967;28;20002;-66
2022/05/03 03:17:42;;;;;;;;;;;11.00;99.90;;;;;;5015876;28;19989;-67
2022/05/03 03:20:09;;;;;;;;;;;10.90;99.90;;;;;;5018810;28;19933;-66
2022/05/03 03:22:38;;;;;;;;;;;10.90;99.90;;;;;;5016147;28;19925;-66
2022/05/03 03:25:05;;;;;;;;;;;10.80;99.90;;;;;;5021969;28;19994;-66
2022/05/03 03:27:32;;;;;;;;;;;10.80;99.90;;;;;;5016754;28;20005;-67
2022/05/03 03:29:59;;;;;;;;;;;10.80;99.90;;;;;;5022606;28;20062;-66
2022/05/03 03:32:26;;;;;;;;;;;10.70;99.90;;;;;;5022772;28;19936;-67
2022/05/03 03:34:54;;;;;;;;;;;10.70;99.90;;;;;;5021789;28;20055;-67
2022/05/03 03:37:23;;;;;;;;;;;10.70;99.90;;;;;;5053933;23;19925;-67
2022/05/03 03:39:51;;;;;;;;;;;10.60;99.90;;;;;;5040584;28;20678;-67
2022/05/03 03:42:17;;;;;;;;;;;10.60;99.90;;;;;;5040269;28;20508;-68
2022/05/03 03:44:45;;;;;;;;;;;10.60;99.90;;;;;;5047749;28;20402;-68
2022/05/03 03:47:12;;;;;;;;;;;10.60;99.90;;;;;;5030134;28;19926;-68
2022/05/03 03:49:39;;;;;;;;;;;10.60;99.90;;;;;;5024279;28;19929;-68
2022/05/03 03:52:06;;;;;;;;;;;10.50;99.90;;;;;;5020842;28;19933;-68
2022/05/03 03:54:32;;;;;;;;;;;10.50;99.90;;;;;;5022214;28;20003;-68
2022/05/03 03:57:00;;;;;;;;;;;10.50;99.90;;;;;;5023491;28;19929;-68
2022/05/03 03:59:30;;;;;;;;;;;10.50;99.90;;;;;;5027932;28;19929;-68
2022/05/03 04:01:57;;;;;;;;;;;10.40;99.90;;;;;;5014229;28;19987;-68
2022/05/03 04:04:26;;;;;;;;;;;10.40;99.90;;;;;;5023469;28;19933;-68
2022/05/03 04:06:53;;;;;;;;;;;10.40;99.90;;;;;;5029826;28;19932;-70
2022/05/03 04:09:19;;;;;;;;;;;10.30;99.90;;;;;;5030708;28;19933;-69
2022/05/03 04:11:47;;;;;;;;;;;10.20;99.90;;;;;;5027534;28;19929;-68
2022/05/03 04:14:15;;;;;;;;;;;10.20;99.90;;;;;;5027399;28;20391;-67
2022/05/03 04:16:42;;;;;;;;;;;10.30;99.90;;;;;;5026536;28;19928;-68
2022/05/03 04:19:09;;;;;;;;;;;10.30;99.90;;;;;;5022977;28;19933;-68
2022/05/03 04:21:35;;;;;;;;;;;10.20;99.90;;;;;;5028476;28;19925;-68
2022/05/03 04:24:02;;;;;;;;;;;10.30;99.90;;;;;;5021196;28;19987;-69
2022/05/03 04:26:28;;;;;;;;;;;10.20;99.90;;;;;;5026682;28;19933;-69
2022/05/03 04:28:58;;;;;;;;;;;10.20;99.90;;;;;;5030577;28;19932;-69
2022/05/03 04:31:27;;;;;;;;;;;10.20;99.90;;;;;;5026676;28;19933;-68
2022/05/03 04:33:54;;;;;;;;;;;10.20;99.90;;;;;;5026989;28;19929;-70
2022/05/03 04:36:20;;;;;;;;;;;10.30;99.90;;;;;;5035817;28;19982;-70
2022/05/03 04:38:47;;;;;;;;;;;10.30;99.90;;;;;;5028518;28;19932;-70
2022/05/03 04:41:14;;;;;;;;;;;10.30;99.90;;;;;;5025915;28;19945;-70
2022/05/03 04:43:40;;;;;;;;;;;10.30;99.90;;;;;;5027972;28;19932;-68
2022/05/03 04:46:07;;;;;;;;;;;10.30;99.90;;;;;;5028955;28;19929;-67
2022/05/03 04:48:34;;;;;;;;;;;10.30;99.90;;;;;;5024175;28;20358;-67
2022/05/03 04:51:01;;;;;;;;;;;10.40;99.90;;;;;;5015231;28;19929;-69
2022/05/03 04:53:28;;;;;;;;;;;10.30;99.90;;;;;;5019744;28;19991;-69
2022/05/03 04:55:54;;;;;;;;;;;10.40;99.90;;;;;;5025551;28;19925;-69
2022/05/03 04:58:21;;;;;;;;;;;10.30;99.90;;;;;;5018573;28;19928;-68
2022/05/03 05:00:47;;;;;;;;;;;10.40;99.90;;;;;;5016136;28;19929;-67
2022/05/03 05:03:14;;;;;;;;;;;10.40;99.90;;;;;;5020821;28;19933;-69
2022/05/03 05:05:42;;;;;;;;;;;10.40;99.90;;;;;;5020633;28;19929;-70
2022/05/03 05:08:08;;;;;;;;;;;10.40;99.90;;;;;;5020223;28;19925;-71
2022/05/03 05:10:35;;;;;;;;;;;10.40;99.90;;;;;;5010591;28;19925;-70
2022/05/03 05:13:02;;;;;;;;;;;10.40;99.90;;;;;;5018742;28;19947;-69
2022/05/03 05:15:28;;;;;;;;;;;10.40;99.90;;;;;;5025536;28;20342;-71
2022/05/03 05:17:56;;;;;;;;;;;10.40;99.90;;;;;;5021202;28;20004;-71
2022/05/03 05:20:22;;;;;;;;;;;10.50;99.90;;;;;;5013243;28;19940;-70
2022/05/03 05:22:50;;;;;;;;;;;10.40;99.90;;;;;;5018158;28;20027;-68
2022/05/03 05:25:17;;;;;;;;;;;10.50;99.90;;;;;;5014926;28;19925;-69
2022/05/03 05:27:43;;;;;;;;;;;10.50;99.90;;;;;;5020823;28;19930;-70
2022/05/03 05:30:11;;;;;;;;;;;10.50;99.90;;;;;;5015435;28;19991;-68
2022/05/03 05:32:38;;;;;;;;;;;10.50;99.90;;;;;;5023640;28;19929;-70
2022/05/03 05:35:05;;;;;;;;;;;10.50;99.90;;;;;;5017744;28;19929;-71
2022/05/03 05:37:32;;;;;;;;;;;10.50;99.90;;;;;;5029587;28;19933;-72
2022/05/03 05:40:00;;;;;;;;;;;10.50;99.90;;;;;;5025662;28;20040;-71
2022/05/03 05:42:26;;;;;;;;;;;10.50;99.90;;;;;;5018141;28;19991;-71
2022/05/03 05:44:53;;;;;;;;;;;10.50;99.90;;;;;;5021460;28;19929;-70
2022/05/03 05:47:20;;;;;;;;;;;10.50;99.90;;;;;;5021450;28;19929;-63
2022/05/03 05:49:46;;;;;;;;;;;10.60;99.90;;;;;;5021030;28;19937;-62
2022/05/03 05:54:57;;;;;;;;;;;10.80;99.90;;;;;;5026504;28;20059;-63
2022/05/03 05:57:25;;;;;;;;;;;10.90;99.90;;;;;;5025349;28;19929;-63
2022/05/03 05:59:52;;;;;;;;;;;11.00;99.90;;;;;;5021983;28;19934;-63
2022/05/03 06:02:18;;;;;;;;;;;11.00;99.90;;;;;;5026750;28;20423;-68
2022/05/03 06:04:45;;;;;;;;;;;11.00;99.90;;;;;;5022742;28;19979;-68
2022/05/03 06:07:11;;;;;;;;;;;11.10;99.90;;;;;;5026030;28;19925;-68
2022/05/03 06:09:38;;;;;;;;;;;11.10;99.90;;;;;;5027351;28;19929;-71
2022/05/03 06:12:05;;;;;;;;;;;11.20;99.90;;;;;;5027214;28;20016;-69
2022/05/03 06:14:32;;;;;;;;;;;11.20;99.90;;;;;;5024651;28;19979;-70
2022/05/03 06:16:59;;;;;;;;;;;11.30;99.90;;;;;;5021561;28;19925;-69
2022/05/03 06:19:25;;;;;;;;;;;11.30;99.90;;;;;;5031766;28;19925;-71
2022/05/03 06:21:52;;;;;;;;;;;11.40;99.90;;;;;;5034394;28;19925;-70
2022/05/03 06:24:19;;;;;;;;;;;11.50;99.90;;;;;;5025526;28;19936;-69
2022/05/03 06:26:45;;;;;;;;;;;11.60;99.90;;;;;;5027093;28;19983;-69
2022/05/03 06:29:12;;;;;;;;;;;11.70;99.90;;;;;;5025946;28;19934;-71
2022/05/03 06:31:40;;;;;;;;;;;11.80;99.90;;;;;;5026238;28;19991;-70
2022/05/03 06:34:06;;;;;;;;;;;11.90;99.90;;;;;;5022125;28;20372;-69
2022/05/03 06:36:35;;;;;;;;;;;12.10;99.90;;;;;;5025401;28;20645;-70
2022/05/03 06:39:02;;;;;;;;;;;12.20;99.90;;;;;;5024931;28;20346;-71
2022/05/03 06:41:28;;;;;;;;;;;12.40;99.90;;;;;;5020682;28;20334;-71
2022/05/03 06:43:56;;;;;;;;;;;12.60;99.90;;;;;;5025113;28;19925;-71
2022/05/03 06:46:23;;;;;;;;;;;12.70;99.90;;;;;;5023650;28;19956;-70
2022/05/03 06:48:50;;;;;;;;;;;12.80;99.90;;;;;;5027397;28;20692;-70
2022/05/03 06:51:17;;;;;;;;;;;12.90;99.90;;;;;;5017492;28;19933;-71
2022/05/03 06:53:43;;;;;;;;;;;13.00;99.90;;;;;;5021849;28;19942;-70
2022/05/03 06:56:10;;;;;;;;;;;13.10;99.90;;;;;;5022040;28;20291;-71
2022/05/03 06:58:37;;;;;;;;;;;13.20;99.90;;;;;;5022430;28;19925;-71
2022/05/03 07:01:09;;;;;;;;;;;13.40;99.90;;;;;;5024475;28;20406;-69
2022/05/03 07:03:36;;;;;;;;;;;13.60;99.90;;;;;;5031531;28;19976;-71
2022/05/03 07:06:04;;;;;;;;;;;13.70;99.90;;;;;;5026459;28;20324;-66
2022/05/03 07:08:31;;;;;;;;;;;13.80;99.90;;;;;;5025166;28;19933;-71
2022/05/03 07:10:57;;;;;;;;;;;13.90;99.90;;;;;;5018265;28;19926;-71
2022/05/03 07:13:24;;;;;;;;;;;14.10;99.90;;;;;;5018729;28;19990;-70
2022/05/03 07:15:51;;;;;;;;;;;13.90;99.90;;;;;;5023217;28;19925;-70
2022/05/03 07:23:47;;;;;;;;;;;13.80;99.90;;;;;;5017966;28;19928;-70
2022/05/03 07:26:14;;;;;;;;;;;14.00;99.90;;;;;;5028196;28;19925;-69
2022/05/03 07:28:41;;;;;;;;;;;14.10;99.90;;;;;;5021386;28;19932;-70
2022/05/03 07:31:08;;;;;;;;;;;14.40;99.90;;;;;;5027067;28;19925;-70
2022/05/03 07:33:35;;;;;;;;;;;14.60;99.90;;;;;;5026426;28;20653;-71
2022/05/03 07:36:03;;;;;;;;;;;14.90;99.90;;;;;;5023063;28;19929;-72
2022/05/03 07:38:29;;;;;;;;;;;15.10;99.90;;;;;;5025864;28;19932;-69
2022/05/03 07:40:57;;;;;;;;;;;15.20;99.90;;;;;;5026012;28;19929;-70
2022/05/03 07:43:24;;;;;;;;;;;15.30;99.90;;;;;;5026271;28;20284;-72
2022/05/03 07:45:51;;;;;;;;;;;15.50;99.90;;;;;;5024297;28;19929;-70
2022/05/03 07:48:17;;;;;;;;;;;15.60;99.90;;;;;;5023307;28;19936;-71
2022/05/03 07:50:44;;;;;;;;;;;15.80;99.90;;;;;;5029155;28;19979;-69
2022/05/03 07:53:11;;;;;;;;;;;16.00;99.90;;;;;;5023089;28;19925;-71
2022/05/03 07:55:37;;;;;;;;;;;16.20;99.90;;;;;;5030508;28;19937;-72
2022/05/03 07:58:05;;;;;;;;;;;16.40;99.90;;;;;;5019962;28;19952;-70
2022/05/03 08:00:32;;;;;;;;;;;16.50;99.90;;;;;;5029740;28;19933;-71
2022/05/03 08:02:58;;;;;;;;;;;16.70;99.90;;;;;;5027903;28;19925;-72
2022/05/03 08:05:25;;;;;;;;;;;16.90;99.90;;;;;;5031182;28;19937;-72
2022/05/03 08:07:51;;;;;;;;;;;17.10;99.90;;;;;;5024079;28;19929;-72
2022/05/03 08:10:18;;;;;;;;;;;17.20;99.90;;;;;;5029009;28;20338;-69
2022/05/03 08:12:50;;;;;;;;;;;17.20;99.90;;;;;;5030058;28;19932;-70
2022/05/03 08:15:18;;;;;;;;;;;17.20;99.90;;;;;;5031180;28;20692;-71
2022/05/03 08:17:45;;;;;;;;;;;17.30;99.90;;;;;;5022656;28;19936;-71
2022/05/03 08:20:13;;;;;;;;;;;17.50;99.90;;;;;;5030665;28;19979;-70
2022/05/03 08:22:39;;;;;;;;;;;17.70;99.90;;;;;;5025320;28;19932;-71
2022/05/03 08:25:06;;;;;;;;;;;17.70;99.90;;;;;;5020408;28;19933;-71
2022/05/03 08:27:36;;;;;;;;;;;17.80;99.90;;;;;;5036831;28;19933;-71
2022/05/03 08:30:03;;;;;;;;;;;18.00;99.90;;;;;;5026097;28;20016;-72
2022/05/03 08:32:30;;;;;;;;;;;18.10;99.90;;;;;;5027189;28;20383;-70
2022/05/03 08:34:57;;;;;;;;;;;18.40;99.90;;;;;;5025812;28;19926;-69
2022/05/03 08:42:53;;;;;;;;;;;18.80;99.90;;;;;;5033773;28;20072;-69
2022/05/03 08:45:20;;;;;;;;;;;18.80;99.90;;;;;;5023168;28;19925;-70
2022/05/03 08:47:48;;;;;;;;;;;18.70;99.90;;;;;;5030269;28;20005;-70
2022/05/03 08:50:18;;;;;;;;;;;18.70;99.90;;;;;;5018250;28;19929;-70
2022/05/03 08:52:47;;;;;;;;;;;18.70;99.90;;;;;;5025840;28;19932;-66
2022/05/03 08:55:14;;;;;;;;;;;18.80;99.90;;;;;;5025485;28;20472;-65
2022/05/03 08:57:42;;;;;;;;;;;19.00;99.90;;;;;;5029582;28;20023;-70
2022/05/03 09:00:09;;;;;;;;;;;19.20;99.90;;;;;;5026640;28;19984;-70
2022/05/03 09:02:41;;;;;;;;;;;19.30;99.90;;;;;;5026182;28;19925;-70
2022/05/03 09:05:10;;;;;;;;;;;19.50;99.90;;;;;;5026723;28;20391;-71
2022/05/03 09:07:37;;;;;;;;;;;19.70;99.90;;;;;;5024061;28;20338;-71
2022/05/03 09:10:15;;;;;;;;;;;20.00;99.90;;;;;;5022369;28;20739;-71
2022/05/03 09:12:42;;;;;;;;;;;20.20;99.90;;;;;;5025429;28;19929;-70
2022/05/03 09:15:09;;;;;;;;;;;20.30;99.90;;;;;;5018091;28;19929;-70
2022/05/03 09:17:39;;;;;;;;;;;20.50;99.90;;;;;;5028017;28;19929;-72
2022/05/03 09:25:41;;;;;;;;;;;20.90;99.90;;;;;;5022087;28;20563;-70
2022/05/03 09:28:08;;;;;;;;;;;21.10;99.90;;;;;;5020886;28;19988;-69
2022/05/03 09:30:34;;;;;;;;;;;21.20;99.90;;;;;;5025045;28;19972;-70
2022/05/03 09:33:01;;;;;;;;;;;21.40;99.90;;;;;;5029767;28;19991;-70
2022/05/03 09:35:33;;;;;;;;;;;21.60;99.30;;;;;;5024976;28;19929;-71
2022/05/03 09:37:59;;;;;;;;;;;21.80;99.50;;;;;;5018384;28;19926;-71
2022/05/03 09:40:26;;;;;;;;;;;21.90;97.50;;;;;;5026750;28;19951;-71
2022/05/03 09:42:53;;;;;;;;;;;21.70;97.50;;;;;;5027342;28;19931;-70
2022/05/03 09:45:21;;;;;;;;;;;21.60;97.80;;;;;;5023987;28;20394;-71
2022/05/03 09:47:51;;;;;;;;;;;21.70;97.50;;;;;;5017465;28;19980;-70
2022/05/03 09:50:28;;;;;;;;;;;21.90;98.00;;;;;;5022247;28;20175;-68
2022/05/03 09:52:56;;;;;;;;;;;22.10;96.80;;;;;;5025115;28;19925;-69
2022/05/03 09:55:32;;;;;;;;;;;22.20;95.50;;;;;;5030140;28;19929;-69
2022/05/03 09:58:00;;;;;;;;;;;22.20;95.90;;;;;;5023540;28;19932;-69
2022/05/03 10:00:27;;;;;;;;;;;22.00;93.80;;;;;;5027576;28;20648;-69
2022/05/03 10:02:54;;;;;;;;;;;21.90;94.70;;;;;;5028799;28;19937;-71
2022/05/03 10:05:21;;;;;;;;;;;21.90;94.90;;;;;;5026257;28;19929;-70
2022/05/03 10:07:48;;;;;;;;;;;22.00;94.70;;;;;;5023943;28;19971;-70
2022/05/03 10:10:17;;;;;;;;;;;22.10;94.90;;;;;;5020199;28;19972;-70
2022/05/03 10:12:43;;;;;;;;;;;22.20;94.70;;;;;;5029441;28;20016;-71
2022/05/03 10:15:10;;;;;;;;;;;22.40;95.30;;;;;;5027508;28;19929;-71
2022/05/03 10:20:38;;;;;;;;;;;22.90;93.60;;;;;;5025448;28;19982;-71
2022/05/03 10:23:05;;;;;;;;;;;23.00;93.10;;;;;;5020965;28;19952;-71
2022/05/03 10:25:46;;;;;;;;;;;23.00;92.10;;;;;;5023141;28;19928;-71
2022/05/03 10:28:15;;;;;;;;;;;23.00;92.10;;;;;;5022847;28;20021;-69
2022/05/03 10:31:07;;;;;;;;;;;23.10;92.20;;;;;;5025910;28;19983;-71
2022/05/03 10:33:36;;;;;;;;;;;23.20;92.00;;;;;;5028244;28;19932;-70
2022/05/03 10:36:03;;;;;;;;;;;23.30;92.70;;;;;;5021590;28;19929;-69
2022/05/03 10:38:37;;;;;;;;;;;23.40;89.60;;;;;;5045968;22;20382;-71
2022/05/03 10:41:05;;;;;;;;;;;23.30;90.70;;;;;;5026951;28;20012;-73
2022/05/03 10:43:34;;;;;;;;;;;23.40;91.70;;;;;;5026878;28;19929;-73
2022/05/03 10:46:09;;;;;;;;;;;23.50;90.20;;;;;;5022530;28;20379;-73
2022/05/03 10:48:36;;;;;;;;;;;23.60;90.40;;;;;;5021291;28;19952;-71
2022/05/03 10:51:04;;;;;;;;;;;23.80;90.90;;;;;;5022381;28;19929;-70
2022/05/03 10:53:32;;;;;;;;;;;24.00;92.70;;;;;;5027649;28;19925;-70
2022/05/03 10:56:16;;;;;;;;;;;24.20;91.40;;;;;;5023352;28;20052;-72
2022/05/03 10:58:45;;;;;;;;;;;24.40;90.20;;;;;;5021274;28;19953;-73
2022/05/03 11:01:14;;;;;;;;;;;24.40;90.40;;;;;;5025575;28;19933;-72
2022/05/03 11:03:41;;;;;;;;;;;24.60;88.90;;;;;;5029917;28;19924;-72
2022/05/03 11:06:32;;;;;;;;;;;24.70;87.60;;;;;;5021910;28;19929;-72
2022/05/03 11:09:11;;;;;;;;;;;24.60;84.50;;;;;;5027714;28;20345;-72
2022/05/03 11:12:05;;;;;;;;;;;24.50;85.50;;;;;;5016416;28;19941;-72
2022/05/03 11:14:55;;;;;;;;;;;24.50;84.70;;;;;;4983182;28;19926;-73
2022/05/03 11:17:21;;;;;;;;;;;24.70;84.40;;;;;;5021087;28;20372;-71
2022/05/03 11:19:56;;;;;;;;;;;24.80;82.50;;;;;;5037115;28;19947;-72
2022/05/03 11:22:23;;;;;;;;;;;24.50;82.20;;;;;;5044424;28;19960;-71
2022/05/03 11:24:50;;;;;;;;;;;24.50;84.20;;;;;;5034383;28;19925;-71
2022/05/03 11:27:17;;;;;;;;;;;24.70;81.30;;;;;;5034777;28;19929;-71
2022/05/03 11:29:45;;;;;;;;;;;24.90;84.10;;;;;;5026016;28;19928;-73
2022/05/03 11:32:14;;;;;;;;;;;25.00;81.00;;;;;;5025635;28;19929;-71
2022/05/03 11:34:41;;;;;;;;;;;25.00;80.00;;;;;;5030985;28;20060;-73
2022/05/03 11:37:08;;;;;;;;;;;25.10;81.40;;;;;;5045321;28;19913;-73
2022/05/03 11:39:36;;;;;;;;;;;25.20;79.80;;;;;;5045911;28;19913;-72
2022/05/03 11:42:03;;;;;;;;;;;25.40;82.60;;;;;;5055834;28;19943;-72
2022/05/03 11:44:30;;;;;;;;;;;25.50;78.30;;;;;;5043952;28;19929;-71
2022/05/03 11:47:00;;;;;;;;;;;25.70;78.20;;;;;;5053994;28;19933;-72
2022/05/03 11:49:31;;;;;;;;;;;25.80;78.70;;;;;;5044227;28;19933;-71
2022/05/03 11:57:32;;;;;;;;;;;25.80;78.00;;;;;;5025065;28;19994;-70
2022/05/03 11:59:59;;;;;;;;;;;26.10;76.70;;;;;;5025992;28;19979;-72
2022/05/03 12:02:30;;;;;;;;;;;26.30;74.20;;;;;;5033496;28;19933;-70
2022/05/03 12:05:02;;;;;;;;;;;26.40;74.60;;;;;;5026187;28;20430;-65
2022/05/03 12:07:28;;;;;;;;;;;26.40;73.90;;;;;;5030666;28;19956;-71
2022/05/03 12:09:55;;;;;;;;;;;26.40;72.50;;;;;;5030758;28;19983;-71
2022/05/03 12:12:44;;;;;;;;;;;26.50;72.30;;;;;;5027674;28;19986;-72
2022/05/03 12:15:15;;;;;;;;;;;26.60;73.50;;;;;;5023950;28;19983;-72
2022/05/03 12:17:51;;;;;;;;;;;26.70;72.50;;;;;;5025418;28;19921;-72
2022/05/03 12:20:19;;;;;;;;;;;26.70;69.80;;;;;;5025968;28;19928;-71
2022/05/03 12:22:46;;;;;;;;;;;26.60;70.60;;;;;;5029018;28;19929;-71
2022/05/03 12:25:26;;;;;;;;;;;26.70;72.50;;;;;;5025824;28;19978;-72
2022/05/03 12:27:52;;;;;;;;;;;26.80;71.20;;;;;;5028057;28;19921;-72
2022/05/03 12:30:20;;;;;;;;;;;26.90;70.20;;;;;;5037626;28;19925;-71
2022/05/03 12:32:48;;;;;;;;;;;27.00;70.90;;;;;;5058024;28;19908;-71
2022/05/03 12:35:14;;;;;;;;;;;27.20;68.60;;;;;;5037535;28;19936;-71
2022/05/03 12:37:52;;;;;;;;;;;27.20;69.10;;;;;;5024242;28;19929;-72
2022/05/03 12:40:24;;;;;;;;;;;27.20;68.60;;;;;;5022510;28;19968;-71
2022/05/03 12:42:50;;;;;;;;;;;27.30;68.10;;;;;;5022002;28;19982;-71
2022/05/03 12:45:19;;;;;;;;;;;27.40;67.20;;;;;;5025148;28;19987;-71
2022/05/03 12:47:46;;;;;;;;;;;27.20;64.30;;;;;;5028477;28;20468;-71
2022/05/03 12:50:12;;;;;;;;;;;26.70;65.40;;;;;;5031365;28;19975;-71
2022/05/03 12:52:39;;;;;;;;;;;26.50;65.80;;;;;;5021808;28;19968;-72
2022/05/03 12:55:07;;;;;;;;;;;26.60;68.10;;;;;;5020129;28;20110;-71
2022/05/03 13:00:18;;;;;;;;;;;27.10;66.20;;;;;;5021254;28;19924;-73
2022/05/03 13:02:45;;;;;;;;;;;27.30;66.00;;;;;;5025256;28;19943;-72
2022/05/03 13:05:11;;;;;;;;;;;27.40;69.00;;;;;;5021839;28;19921;-73
2022/05/03 13:07:38;;;;;;;1.75;1.65;;;27.80;67.60;;;;;;5021879;28;19928;-73
2022/05/03 13:10:07;;;;;;;3.53;2.77;;;28.10;65.90;;;;;;5027361;28;20264;-74
2022/05/03 13:12:35;;;;;;;3.60;2.73;;;28.30;62.60;;;;;;5023723;28;20440;-73
2022/05/03 13:15:02;;;;;;;2.50;2.30;;;28.00;60.90;;;;;;5029946;28;20499;-72
2022/05/03 13:17:29;;;;;;;3.40;2.97;;;27.90;65.50;;;;;;5025699;28;20448;-74
2022/05/03 13:19:56;;;;;;;3.77;2.30;;;27.90;65.40;;;;;;5030448;28;20462;-73
2022/05/03 13:22:23;;;;;;;3.70;3.00;;;28.10;64.60;;;;;;5022404;28;20439;-73
2022/05/03 13:24:49;;;;;;;3.03;2.80;;;28.20;62.10;;;;;;5030090;28;20411;-74
2022/05/03 13:27:17;;;;;;;3.80;3.33;;;28.20;61.80;;;;;;5028213;28;20451;-73
2022/05/03 13:29:44;;;;;;;2.70;2.50;;;28.20;61.70;;;;;;5029742;28;20455;-74
2022/05/03 13:32:11;;;;;;;3.60;3.07;;;28.10;59.60;;;;;;5031969;28;20432;-74
2022/05/03 13:34:37;;;;;;;2.93;2.27;;;28.20;60.70;;;;;;5030755;28;20428;-74
2022/05/03 13:42:35;;;;;;;2.77;2.50;;;29.10;59.60;;;;;;5035914;28;20444;-73
2022/05/03 13:45:02;;;;;;;3.00;2.80;;;29.30;61.60;;;;;;5040345;28;20432;-74
2022/05/03 13:47:30;;;;;;;2.70;2.50;;;29.30;57.90;;;;;;5031182;28;20448;-73
2022/05/03 13:49:57;;;;;;;2.50;2.30;;;29.40;57.90;;;;;;5031995;28;20462;-73
2022/05/03 13:52:24;;;;;;;2.60;2.40;;;29.40;61.20;;;;;;5034920;28;20435;-73
2022/05/03 13:54:51;;;;;;;2.80;1.97;;;29.60;58.70;;;;;;5040064;28;20471;-72
2022/05/03 13:57:17;;;;;;;3.10;2.30;;;29.80;60.80;;;;;;5031208;28;20485;-75
2022/05/03 13:59:46;;;;;;;2.37;2.17;;;30.10;59.50;;;;;;5033906;28;20435;-74
2022/05/03 14:02:13;;;;;;;4.03;2.27;;;30.50;58.80;;;;;;5024182;28;20442;-74
2022/05/03 14:04:40;;;;;;;2.90;2.70;;;30.70;57.00;;;;;;5028215;28;20485;-71
2022/05/03 14:07:07;;;;;;;1.83;1.37;;;31.10;56.40;;;;;;5020765;28;20440;-73
2022/05/03 14:09:33;;;;;;;2.20;2.10;;;31.20;57.10;;;;;;5022243;28;20470;-72
2022/05/03 14:12:03;;;;;;;2.27;2.00;;;31.30;57.10;;;;;;5018176;28;20494;-71
2022/05/03 14:14:30;;;;;;;2.20;2.10;;;31.50;56.40;;;;;;5033060;28;20547;-73
2022/05/03 14:16:57;;;;;;;2.50;1.53;;;31.70;54.30;;;;;;5034445;28;20460;-73
2022/05/03 14:19:24;;;;;;;2.20;1.97;;;31.60;55.20;;;;;;5022555;28;21580;-72
2022/05/03 14:21:51;;;;;;;2.20;2.10;;;31.90;55.90;;;;;;5028354;28;20473;-72
2022/05/03 14:24:17;;;;;;;1.70;1.60;;;32.30;52.60;;;;;;5028069;28;20460;-73
2022/05/03 14:26:44;;;;;;;1.50;1.40;;;32.50;53.10;;;;;;5021374;28;20457;-73
2022/05/03 14:29:11;;;;;;;1.80;1.70;;;32.80;54.60;;;;;;5016115;28;20474;-73
2022/05/03 14:31:38;;;;;;;2.00;1.90;;;33.10;52.60;;;;;;5026103;28;20465;-73
2022/05/03 14:34:07;;;;;;;1.57;1.47;;;33.40;51.80;;;;;;5025450;28;20469;-72
2022/05/03 14:36:34;;;;;;;1.67;1.57;;;33.80;51.60;;;;;;5021341;28;20493;-72
2022/05/03 14:39:01;;;;;;;1.93;1.83;;;33.70;49.90;;;;;;5026634;28;20496;-71
2022/05/03 14:41:29;;;;;;;1.30;1.20;;;33.70;49.60;;;;;;5038589;28;20439;-72
2022/05/03 14:43:56;;;;;;;2.00;1.90;;;33.70;50.10;;;;;;5031592;28;20507;-72
2022/05/03 14:46:22;;;;;;;1.73;1.63;;;33.70;48.50;;;;;;5037909;28;20497;-72
2022/05/03 14:48:49;;;;;;;2.00;1.90;;;33.50;49.40;;;;;;5046394;28;20481;-71
2022/05/03 14:51:17;;;;;;;2.83;1.70;;;33.30;49.10;;;;;;5036827;28;20470;-71
2022/05/03 14:53:44;;;;;;;1.87;1.77;;;33.90;51.10;;;;;;5039713;28;20457;-73
2022/05/03 15:04:20;;;;;;;2.10;1.90;;;35.70;47.00;;;;;;4972842;28;20415;-73